createdAt,value
2023-03-12T00:06:18.947Z,0.53
2023-03-12T00:07:19.032Z,0.54
2023-03-12T00:08:19.104Z,0.54
2023-03-12T00:09:19.237Z,0.53
2023-03-12T00:10:19.268Z,0.54
2023-03-12T00:11:19.337Z,0.54
2023-03-12T00:12:19.439Z,0.53
2023-03-12T00:13:19.501Z,0.54
2023-03-12T00:14:19.603Z,0.54
2023-03-12T00:15:19.671Z,0.54
2023-03-12T00:16:19.825Z,0.54
2023-03-12T00:17:19.833Z,0.53
2023-03-12T00:18:19.910Z,0.54
2023-03-12T00:19:20.009Z,0.53
2023-03-12T00:20:20.120Z,0.54
2023-03-12T00:21:20.223Z,0.54
2023-03-12T00:22:20.331Z,0.54
2023-03-12T00:23:20.451Z,0.54
2023-03-12T00:24:20.571Z,0.54
2023-03-12T00:25:20.658Z,0.55
2023-03-12T00:26:20.892Z,0.54
2023-03-12T00:27:20.904Z,0.54
2023-03-12T00:28:20.985Z,0.54
2023-03-12T00:29:21.101Z,0.54
2023-03-12T00:30:21.210Z,0.54
2023-03-12T00:31:21.421Z,0.54
2023-03-12T01:02:24.596Z,0.53
2023-03-12T01:45:29.010Z,0.52
2023-03-12T01:46:29.796Z,0.53
2023-03-12T01:47:29.181Z,0.53
2023-03-12T01:48:29.273Z,0.53
2023-03-12T01:49:29.383Z,0.53
2023-03-12T01:50:29.483Z,0.54
2023-03-12T01:51:29.594Z,0.53
2023-03-12T01:52:29.709Z,0.54
2023-03-12T01:53:29.817Z,0.53
2023-03-12T01:54:30.781Z,0.54
2023-03-12T01:55:30.026Z,0.53
2023-03-12T01:56:30.135Z,0.53
2023-03-12T01:57:30.228Z,0.54
2023-03-12T01:58:30.387Z,0.53
2023-03-12T01:59:30.422Z,0.53
2023-03-12T02:00:30.497Z,0.52
2023-03-12T02:01:30.668Z,0.53
2023-03-12T02:02:30.706Z,0.53
2023-03-12T02:03:30.805Z,0.53
2023-03-12T02:04:30.917Z,0.53
2023-03-12T02:05:31.029Z,0.52
2023-03-12T02:06:31.130Z,0.53
2023-03-12T02:07:31.243Z,0.54
2023-03-12T02:08:31.343Z,0.53
2023-03-12T02:09:31.451Z,0.53
2023-03-12T02:10:31.599Z,0.53
2023-03-12T02:11:32.298Z,0.53
2023-03-12T03:27:39.326Z,0.53
2023-03-12T03:51:40.837Z,0.53
2023-03-12T03:55:40.689Z,0.53
2023-03-12T03:56:40.775Z,0.53
2023-03-12T03:57:40.862Z,0.53
2023-03-12T03:58:40.934Z,0.53
2023-03-12T03:59:40.999Z,0.53
2023-03-12T04:00:41.070Z,0.53
2023-03-12T04:01:41.148Z,0.53
2023-03-12T04:02:41.230Z,0.53
2023-03-12T04:03:41.436Z,0.53
2023-03-12T04:04:41.377Z,0.52
2023-03-12T04:05:41.482Z,0.53
2023-03-12T04:06:41.550Z,0.53
2023-03-12T05:57:51.381Z,0.53
2023-03-12T05:58:50.706Z,0.52
2023-03-12T05:59:50.676Z,0.53
2023-03-12T06:00:50.760Z,0.53
2023-03-12T06:01:50.864Z,0.52
2023-03-12T06:02:50.923Z,0.52
2023-03-12T06:03:50.976Z,0.52
2023-03-12T06:04:51.052Z,0.53
2023-03-12T06:05:51.207Z,0.52
2023-03-12T06:06:51.211Z,0.52
2023-03-12T06:07:51.312Z,0.52
2023-03-12T06:08:51.392Z,0.52
2023-03-12T06:09:52.384Z,0.52
2023-03-12T06:10:51.546Z,0.53
2023-03-12T06:11:51.626Z,0.53
2023-03-12T06:12:51.699Z,0.53
2023-03-12T06:13:51.772Z,0.52
2023-03-12T06:14:51.848Z,0.52
2023-03-12T06:15:51.926Z,0.52
2023-03-12T06:16:52.083Z,0.53
2023-03-12T06:17:52.062Z,0.52
2023-03-12T06:18:52.149Z,0.53
2023-03-12T06:19:52.229Z,0.53
2023-03-12T06:20:52.363Z,0.53
2023-03-12T06:21:52.443Z,0.53
2023-03-12T06:22:52.494Z,0.52
2023-03-12T06:23:52.564Z,0.52
2023-03-12T06:24:52.660Z,0.52
2023-03-12T06:25:52.738Z,0.52
2023-03-12T06:26:52.824Z,0.52
2023-03-12T06:27:52.920Z,0.53
2023-03-12T06:28:52.993Z,0.52
2023-03-12T06:29:53.084Z,0.53
2023-03-12T06:30:53.147Z,0.53
2023-03-12T06:31:53.430Z,0.53
2023-03-12T06:32:53.361Z,0.52
2023-03-12T06:33:53.484Z,0.52
2023-03-12T06:34:53.474Z,0.53
2023-03-12T06:35:53.577Z,0.52
2023-03-12T06:36:53.614Z,0.53
2023-03-12T06:37:53.691Z,0.53
2023-03-12T06:38:56.946Z,0.52
2023-03-12T06:39:53.844Z,0.54
2023-03-12T06:40:53.874Z,0.53
2023-03-12T06:41:53.861Z,0.53
2023-03-12T06:42:53.888Z,0.53
2023-03-12T06:43:53.919Z,0.53
2023-03-12T06:44:53.947Z,0.52
2023-03-12T06:45:53.974Z,0.52
2023-03-12T06:46:54.008Z,0.51
2023-03-12T06:47:54.041Z,0.52
2023-03-12T06:48:54.068Z,0.53
2023-03-12T06:49:54.096Z,0.53
2023-03-12T06:50:54.126Z,0.53
2023-03-12T06:51:54.162Z,0.53
2023-03-12T06:52:54.192Z,0.53
2023-03-12T06:53:54.222Z,0.52
2023-03-12T06:54:54.345Z,0.53
2023-03-12T06:55:54.288Z,0.52
2023-03-12T06:56:54.312Z,0.53
2023-03-12T06:57:54.343Z,0.52
2023-03-12T06:58:54.373Z,0.53
2023-03-12T06:59:54.401Z,0.52
2023-03-12T07:00:54.438Z,0.51
2023-03-12T07:01:54.507Z,0.52
2023-03-12T07:02:54.908Z,0.53
2023-03-12T07:03:54.529Z,0.53
2023-03-12T07:04:54.552Z,0.52
2023-03-12T07:05:54.582Z,0.52
2023-03-12T07:06:54.615Z,0.53
2023-03-12T07:07:54.637Z,0.52
2023-03-12T07:08:54.669Z,0.52
2023-03-12T08:25:00.687Z,0.53
2023-03-12T08:26:00.770Z,0.54
2023-03-12T08:27:00.873Z,0.54
2023-03-12T08:28:00.977Z,0.53
2023-03-12T08:29:01.101Z,0.54
2023-03-12T08:30:01.172Z,0.53
2023-03-12T08:31:01.260Z,0.54
2023-03-12T08:32:05.260Z,0.53
2023-03-12T08:33:01.366Z,0.53
2023-03-12T08:34:01.383Z,0.53
2023-03-12T08:35:01.408Z,0.53
2023-03-12T08:36:01.501Z,0.54
2023-03-12T08:37:01.453Z,0.54
2023-03-12T08:38:02.438Z,0.54
2023-03-12T08:39:01.536Z,0.54
2023-03-12T08:40:01.557Z,0.54
2023-03-12T08:41:01.585Z,0.54
2023-03-12T08:42:02.437Z,0.54
2023-03-12T08:43:01.681Z,0.55
2023-03-12T08:44:01.683Z,0.54
2023-03-12T08:45:01.717Z,0.53
2023-03-12T08:46:01.832Z,0.53
2023-03-12T08:47:01.774Z,0.54
2023-03-12T08:48:01.796Z,0.53
2023-03-12T08:49:01.814Z,0.53
2023-03-12T08:50:01.843Z,0.53
2023-03-12T08:51:01.880Z,0.53
2023-03-12T08:52:01.893Z,0.53
2023-03-12T08:53:01.906Z,0.53
2023-03-12T08:54:01.934Z,0.54
2023-03-12T08:55:02.037Z,0.53
2023-03-12T08:56:02.070Z,0.53
2023-03-12T08:57:02.143Z,0.53
2023-03-12T08:58:02.235Z,0.53
2023-03-12T08:59:02.339Z,0.54
2023-03-12T09:00:02.447Z,0.53
2023-03-12T09:01:02.545Z,0.54
2023-03-12T09:02:02.631Z,0.53
2023-03-12T09:03:02.772Z,0.53
2023-03-12T09:04:02.832Z,0.53
2023-03-12T09:05:03.456Z,0.53
2023-03-12T09:06:03.010Z,0.54
2023-03-12T09:07:03.103Z,0.54
2023-03-12T09:08:03.192Z,0.53
2023-03-12T09:09:03.289Z,0.54
2023-03-12T09:10:03.369Z,0.53
2023-03-12T09:11:03.464Z,0.54
2023-03-12T09:12:03.544Z,0.53
2023-03-12T09:13:03.640Z,0.53
2023-03-12T09:14:50.196Z,0.53
2023-03-12T09:15:05.269Z,0.53
2023-03-12T09:16:03.781Z,0.53
2023-03-12T09:17:03.886Z,0.53
2023-03-12T09:18:03.841Z,0.53
2023-03-12T09:19:03.867Z,0.54
2023-03-12T09:20:03.891Z,0.54
2023-03-12T10:42:10.651Z,0.55
2023-03-12T10:43:10.741Z,0.54
2023-03-12T10:44:10.828Z,0.55
2023-03-12T10:45:11.033Z,0.54
2023-03-12T10:46:11.120Z,0.54
2023-03-12T10:47:11.098Z,0.54
2023-03-12T10:48:11.175Z,0.54
2023-03-12T10:49:11.263Z,0.54
2023-03-12T10:50:11.357Z,0.54
2023-03-12T10:51:11.438Z,0.55
2023-03-12T10:52:11.536Z,0.54
2023-03-12T10:53:11.621Z,0.54
2023-03-12T10:54:11.737Z,0.54
2023-03-12T10:55:11.804Z,0.54
2023-03-12T10:56:11.897Z,0.54
2023-03-12T10:57:11.989Z,0.54
2023-03-12T10:58:12.065Z,0.54
2023-03-12T10:59:12.146Z,0.54
2023-03-12T11:00:12.264Z,0.54
2023-03-12T11:01:12.344Z,0.54
2023-03-12T11:02:12.435Z,0.55
2023-03-12T11:03:12.517Z,0.55
2023-03-12T11:04:12.606Z,0.56
2023-03-12T11:05:12.694Z,0.54
2023-03-12T11:06:12.808Z,0.54
2023-03-12T12:34:21.029Z,0.54
2023-03-12T12:39:20.651Z,0.55
2023-03-12T12:40:20.733Z,0.55
2023-03-12T12:41:20.843Z,0.55
2023-03-12T12:42:20.904Z,0.55
2023-03-12T12:43:20.989Z,0.54
2023-03-12T12:44:21.072Z,0.54
2023-03-12T12:45:21.154Z,0.54
2023-03-12T12:46:21.286Z,0.55
2023-03-12T12:47:21.335Z,0.54
2023-03-12T12:48:21.427Z,0.54
2023-03-12T12:49:21.506Z,0.55
2023-03-12T12:50:21.565Z,0.54
2023-03-12T12:51:21.641Z,0.55
2023-03-12T12:52:21.710Z,0.55
2023-03-12T12:53:21.836Z,0.54
2023-03-12T12:54:21.879Z,0.55
2023-03-12T12:55:21.955Z,0.54
2023-03-12T12:56:22.021Z,0.55
2023-03-12T12:57:22.094Z,0.55
2023-03-12T12:58:22.194Z,0.55
2023-03-12T12:59:22.277Z,0.54
2023-03-12T13:00:22.375Z,0.54
2023-03-12T13:01:22.543Z,0.54
2023-03-12T13:02:22.551Z,0.55
2023-03-12T13:03:22.646Z,0.55
2023-03-12T13:04:22.776Z,0.54
2023-03-12T13:05:22.823Z,0.54
2023-03-12T13:06:22.921Z,0.55
2023-03-12T13:07:23.028Z,0.55
2023-03-12T13:08:23.116Z,0.55
2023-03-12T13:09:23.203Z,0.55
2023-03-12T13:10:23.305Z,0.54
2023-03-12T13:11:23.383Z,0.55
2023-03-12T13:12:23.445Z,0.54
2023-03-12T13:13:23.987Z,0.55
2023-03-12T13:14:23.604Z,0.55
2023-03-12T13:15:23.689Z,0.55
2023-03-12T13:16:23.851Z,0.55
2023-03-12T13:17:23.854Z,0.55
2023-03-12T13:18:23.966Z,0.55
2023-03-12T13:19:24.049Z,0.55
2023-03-12T13:20:24.129Z,0.55
2023-03-12T13:21:24.225Z,0.55
2023-03-12T13:22:24.302Z,0.55
2023-03-12T13:23:24.379Z,0.55
2023-03-12T13:24:24.464Z,0.55
2023-03-12T13:25:24.548Z,0.56
2023-03-12T13:26:24.645Z,0.55
2023-03-12T13:27:24.726Z,0.56
2023-03-12T13:28:24.805Z,0.55
2023-03-12T13:29:25.570Z,0.55
2023-03-12T13:30:24.980Z,0.55
2023-03-12T13:31:25.158Z,0.55
2023-03-12T13:32:25.209Z,0.55
2023-03-12T13:34:27.964Z,0.55
2023-03-12T13:35:25.354Z,0.56
2023-03-12T13:36:25.387Z,0.55
2023-03-12T15:02:31.182Z,0.56
2023-03-12T15:04:30.656Z,0.56
2023-03-12T15:05:30.725Z,0.56
2023-03-12T15:06:30.892Z,0.55
2023-03-12T15:07:30.882Z,0.55
2023-03-12T15:08:30.950Z,0.55
2023-03-12T15:09:31.023Z,0.56
2023-03-12T15:10:31.108Z,0.55
2023-03-12T15:11:31.187Z,0.56
2023-03-12T15:12:31.238Z,0.55
2023-03-12T15:13:31.346Z,0.56
2023-03-12T15:14:31.365Z,0.56
2023-03-12T15:15:31.445Z,0.55
2023-03-12T15:16:31.614Z,0.55
2023-03-12T15:17:31.619Z,0.55
2023-03-12T15:18:31.674Z,0.55
2023-03-12T15:19:31.741Z,0.56
2023-03-12T15:20:31.825Z,0.55
2023-03-12T15:21:31.894Z,0.55
2023-03-12T15:22:31.962Z,0.56
2023-03-12T15:23:32.041Z,0.55
2023-03-12T15:24:33.099Z,0.55
2023-03-12T15:25:32.182Z,0.56
2023-03-12T15:26:32.272Z,0.56
2023-03-12T15:27:32.355Z,0.56
2023-03-12T15:28:32.423Z,0.55
2023-03-12T15:29:32.503Z,0.56
2023-03-12T15:30:32.621Z,0.56
2023-03-12T15:31:32.829Z,0.55
2023-03-12T15:32:32.822Z,0.55
2023-03-12T15:33:32.841Z,0.56
2023-03-12T15:34:33.129Z,0.56
2023-03-12T15:35:33.095Z,0.56
2023-03-12T15:36:33.081Z,0.56
2023-03-12T15:37:33.123Z,0.56
2023-03-12T15:38:33.197Z,0.56
2023-03-12T15:39:33.393Z,0.55
2023-03-12T15:40:33.341Z,0.56
2023-03-12T15:41:33.430Z,0.56
2023-03-12T15:42:33.503Z,0.56
2023-03-12T15:43:33.578Z,0.56
2023-03-12T15:44:33.649Z,0.55
2023-03-12T15:45:33.800Z,0.56
2023-03-12T15:46:33.921Z,0.55
2023-03-12T15:47:33.919Z,0.55
2023-03-12T15:48:33.932Z,0.55
2023-03-12T15:49:34.027Z,0.56
2023-03-12T15:50:34.100Z,0.56
2023-03-12T15:51:34.170Z,0.56
2023-03-12T15:52:34.248Z,0.56
2023-03-12T15:53:34.314Z,0.54
2023-03-12T15:54:34.400Z,0.56
2023-03-12T15:55:34.433Z,0.56
2023-03-12T15:56:34.491Z,0.56
2023-03-12T15:57:34.585Z,0.55
2023-03-12T15:58:34.643Z,0.55
2023-03-12T15:59:34.692Z,0.56
2023-03-12T16:00:34.772Z,0.56
2023-03-12T16:01:34.896Z,0.56
2023-03-12T16:02:34.954Z,0.56
2023-03-12T16:03:35.006Z,0.56
2023-03-12T16:04:35.066Z,0.56
2023-03-12T16:05:35.111Z,0.56
2023-03-12T16:06:35.187Z,0.56
2023-03-12T16:07:35.281Z,0.55
2023-03-12T16:08:35.352Z,0.56
2023-03-12T16:09:35.421Z,0.56
2023-03-12T16:10:35.484Z,0.56
2023-03-12T16:11:35.623Z,0.55
2023-03-12T16:12:35.608Z,0.55
2023-03-12T16:13:35.659Z,0.56
2023-03-12T16:14:35.726Z,0.56
2023-03-12T16:15:35.803Z,0.56
2023-03-12T16:16:36.056Z,0.56
2023-03-12T16:17:35.904Z,0.55
2023-03-12T16:18:35.984Z,0.56
2023-03-12T16:19:36.177Z,0.56
2023-03-12T16:20:36.077Z,0.56
2023-03-12T16:21:36.143Z,0.56
2023-03-12T16:22:36.214Z,0.55
2023-03-12T16:23:36.294Z,0.55
2023-03-12T16:24:36.374Z,0.56
2023-03-12T16:25:36.452Z,0.56
2023-03-12T16:26:36.527Z,0.56
2023-03-12T16:27:36.579Z,0.56
2023-03-12T16:28:36.718Z,0.56
2023-03-12T16:29:36.711Z,0.56
2023-03-12T16:30:36.794Z,0.56
2023-03-12T16:31:36.883Z,0.56
2023-03-12T16:32:36.910Z,0.56
2023-03-12T16:33:37.152Z,0.56
2023-03-12T16:34:37.026Z,0.55
2023-03-12T16:35:37.673Z,0.56
2023-03-12T16:36:37.164Z,0.56
2023-03-12T16:37:37.215Z,0.56
2023-03-12T16:38:37.287Z,0.56
2023-03-12T16:39:37.392Z,0.55
2023-03-12T16:40:37.473Z,0.56
2023-03-12T16:42:37.630Z,0.56
2023-03-12T17:20:40.735Z,0.56
2023-03-12T17:21:40.716Z,0.56
2023-03-12T17:22:40.786Z,0.56
2023-03-12T17:23:40.856Z,0.56
2023-03-12T17:24:40.923Z,0.57
2023-03-12T17:25:40.991Z,0.56
2023-03-12T17:26:41.061Z,0.57
2023-03-12T17:27:41.145Z,0.56
2023-03-12T17:28:41.304Z,0.56
2023-03-12T17:29:41.302Z,0.56
2023-03-12T17:30:41.469Z,0.57
2023-03-12T17:31:41.449Z,0.56
2023-03-12T17:32:41.550Z,0.57
2023-03-12T17:33:41.580Z,0.57
2023-03-12T17:34:41.654Z,0.56
2023-03-12T17:35:41.809Z,0.57
2023-03-12T17:36:41.786Z,0.56
2023-03-12T17:37:41.867Z,0.57
2023-03-12T17:38:41.941Z,0.57
2023-03-12T17:39:42.009Z,0.57
2023-03-12T17:40:42.074Z,0.57
2023-03-12T17:41:42.148Z,0.57
2023-03-12T17:42:42.675Z,0.56
2023-03-12T17:43:42.288Z,0.57
2023-03-12T17:44:43.155Z,0.56
2023-03-12T17:45:42.410Z,0.56
2023-03-12T17:46:56.645Z,0.57
2023-03-12T17:47:43.506Z,0.57
2023-03-12T17:48:42.603Z,0.57
2023-03-12T17:49:42.551Z,0.57
2023-03-12T17:50:42.577Z,0.57
2023-03-12T17:51:42.612Z,0.57
2023-03-12T17:52:42.637Z,0.57
2023-03-12T17:53:42.666Z,0.57
2023-03-12T17:54:42.669Z,0.57
2023-03-12T17:55:42.676Z,0.56
2023-03-12T17:56:42.741Z,0.57
2023-03-12T17:57:42.820Z,0.57
2023-03-12T17:58:42.898Z,0.57
2023-03-12T17:59:42.988Z,0.57
2023-03-12T18:00:43.043Z,0.57
2023-03-12T18:01:43.120Z,0.57
2023-03-12T18:02:43.670Z,0.57
2023-03-12T18:03:43.333Z,0.57
2023-03-12T18:04:43.502Z,0.56
2023-03-12T18:05:43.416Z,0.57
2023-03-12T18:06:43.481Z,0.57
2023-03-12T18:07:43.605Z,0.56
2023-03-12T18:08:43.609Z,0.57
2023-03-12T18:09:43.700Z,0.57
2023-03-12T18:10:43.878Z,0.57
2023-03-12T18:11:43.844Z,0.56
2023-03-12T18:12:43.939Z,0.57
2023-03-12T18:13:44.006Z,0.57
2023-03-12T18:14:44.177Z,0.57
2023-03-12T18:15:44.148Z,0.56
2023-03-12T18:16:44.209Z,0.56
2023-03-12T18:17:44.287Z,0.57
2023-03-12T18:18:44.364Z,0.57
2023-03-12T18:19:45.169Z,0.56
2023-03-12T18:20:44.500Z,0.57
2023-03-12T18:21:44.579Z,0.56
2023-03-12T18:22:44.653Z,0.56
2023-03-12T18:23:44.754Z,0.57
2023-03-12T18:24:44.805Z,0.57
2023-03-12T18:25:44.900Z,0.57
2023-03-12T18:26:44.968Z,0.56
2023-03-12T18:27:45.061Z,0.56
2023-03-12T18:28:45.146Z,0.57
2023-03-12T18:29:45.214Z,0.57
2023-03-12T18:30:45.277Z,0.57
2023-03-12T18:31:45.399Z,0.57
2023-03-12T18:32:45.547Z,0.57
2023-03-12T18:33:45.504Z,0.56
2023-03-12T18:34:45.603Z,0.57
2023-03-12T18:35:45.702Z,0.57
2023-03-12T18:36:45.720Z,0.56
2023-03-12T18:37:45.784Z,0.57
2023-03-12T18:38:45.877Z,0.56
2023-03-12T18:39:45.932Z,0.58
2023-03-12T18:40:46.006Z,0.57
2023-03-12T18:41:46.084Z,0.57
2023-03-12T18:42:46.161Z,0.57
2023-03-12T18:43:46.215Z,0.57
2023-03-12T18:44:46.300Z,0.57
2023-03-12T18:45:46.358Z,0.56
2023-03-12T18:46:46.497Z,0.57
2023-03-12T18:47:46.488Z,0.56
2023-03-12T18:48:46.569Z,0.56
2023-03-12T18:49:46.650Z,0.57
2023-03-12T18:50:46.706Z,0.57
2023-03-12T18:51:46.783Z,0.56
2023-03-12T18:52:46.864Z,0.56
2023-03-12T18:53:46.931Z,0.56
2023-03-12T18:54:47.188Z,0.57
2023-03-12T18:55:47.086Z,0.57
2023-03-12T18:56:47.212Z,0.57
2023-03-12T18:57:47.227Z,0.57
2023-03-12T18:58:47.309Z,0.56
2023-03-12T18:59:47.371Z,0.57
2023-03-12T19:00:47.426Z,0.57
2023-03-12T19:01:47.555Z,0.57
2023-03-12T19:02:48.158Z,0.57
2023-03-12T19:03:47.702Z,0.57
2023-03-12T19:04:47.742Z,0.58
2023-03-12T19:05:47.801Z,0.58
2023-03-12T19:06:51.558Z,0.58
2023-03-12T19:07:47.899Z,0.58
2023-03-12T19:08:47.942Z,0.58
2023-03-12T19:58:50.656Z,0.57
2023-03-12T19:59:50.796Z,0.57
2023-03-12T20:00:50.800Z,0.57
2023-03-12T20:01:50.904Z,0.57
2023-03-12T20:02:51.056Z,0.58
2023-03-12T20:03:51.043Z,0.57
2023-03-12T20:04:51.183Z,0.57
2023-03-12T20:05:51.195Z,0.57
2023-03-12T20:06:51.262Z,0.57
2023-03-12T20:07:51.338Z,0.57
2023-03-12T20:08:51.425Z,0.57
2023-03-12T20:09:51.486Z,0.57
2023-03-12T20:10:51.589Z,0.57
2023-03-12T20:11:51.638Z,0.57
2023-03-12T20:12:51.698Z,0.58
2023-03-12T20:13:51.776Z,0.57
2023-03-12T20:14:51.870Z,0.57
2023-03-12T20:15:51.903Z,0.56
2023-03-12T20:16:52.032Z,0.57
2023-03-12T20:17:52.091Z,0.57
2023-03-12T20:18:52.135Z,0.57
2023-03-12T20:19:52.211Z,0.57
2023-03-12T20:20:52.280Z,0.58
2023-03-12T20:21:52.351Z,0.58
2023-03-12T20:22:52.436Z,0.57
2023-03-12T20:23:52.520Z,0.58
2023-03-12T20:24:52.585Z,0.58
2023-03-12T20:25:52.732Z,0.57
2023-03-12T20:26:52.776Z,0.58
2023-03-12T20:27:53.717Z,0.58
2023-03-12T20:28:52.897Z,0.57
2023-03-12T20:29:52.981Z,0.57
2023-03-12T20:30:53.065Z,0.57
2023-03-12T20:31:53.228Z,0.57
2023-03-12T20:32:53.293Z,0.57
2023-03-12T20:33:53.315Z,0.57
2023-03-12T20:34:53.388Z,0.57
2023-03-12T20:35:53.491Z,0.57
2023-03-12T20:36:53.531Z,0.57
2023-03-12T20:37:53.661Z,0.57
2023-03-12T20:38:53.687Z,0.57
2023-03-12T20:39:53.753Z,0.56
2023-03-12T20:40:53.821Z,0.57
2023-03-12T20:41:53.898Z,0.56
2023-03-12T20:42:53.975Z,0.57
2023-03-12T20:43:54.044Z,0.57
2023-03-12T20:44:54.110Z,0.57
2023-03-12T20:45:54.214Z,0.56
2023-03-12T20:46:54.271Z,0.58
2023-03-12T20:47:54.343Z,0.57
2023-03-12T20:48:56.648Z,0.57
2023-03-12T20:49:54.500Z,0.57
2023-03-12T20:50:54.576Z,0.56
2023-03-12T20:51:55.236Z,0.57
2023-03-12T20:52:54.763Z,0.57
2023-03-12T20:53:54.808Z,0.57
2023-03-12T20:54:54.834Z,0.57
2023-03-12T20:55:54.931Z,0.57
2023-03-12T20:56:55.028Z,0.57
2023-03-12T20:57:55.099Z,0.57
2023-03-12T20:58:55.164Z,0.57
2023-03-12T20:59:55.252Z,0.57
2023-03-12T21:00:55.373Z,0.57
2023-03-12T21:01:55.409Z,0.57
2023-03-12T21:02:55.467Z,0.57
2023-03-12T21:03:55.530Z,0.57
2023-03-12T21:04:55.593Z,0.57
2023-03-12T21:05:55.678Z,0.57
2023-03-12T21:06:55.750Z,0.57
2023-03-12T21:07:55.823Z,0.57
2023-03-12T21:08:55.875Z,0.57
2023-03-12T21:09:55.949Z,0.57
2023-03-12T21:10:56.010Z,0.57
2023-03-12T21:11:56.105Z,0.57
2023-03-12T21:12:56.137Z,0.57
2023-03-12T21:13:56.198Z,0.56
2023-03-12T21:14:56.293Z,0.57
2023-03-12T21:15:56.359Z,0.57
2023-03-12T21:16:56.455Z,0.57
2023-03-12T21:17:56.476Z,0.57
2023-03-12T21:18:56.548Z,0.57
2023-03-12T21:19:56.606Z,0.58
2023-03-12T21:20:56.687Z,0.57
2023-03-12T21:21:56.755Z,0.58
2023-03-12T21:22:56.833Z,0.57
2023-03-12T21:23:56.884Z,0.57
2023-03-12T21:24:56.942Z,0.58
2023-03-12T21:25:57.013Z,0.57
2023-03-12T22:10:00.606Z,0.57
2023-03-12T22:11:00.713Z,0.56
2023-03-12T22:12:00.761Z,0.56
2023-03-12T22:13:00.839Z,0.57
2023-03-12T22:14:00.921Z,0.56
2023-03-12T22:15:01.168Z,0.56
2023-03-12T22:16:01.111Z,0.57
2023-03-12T22:17:01.129Z,0.56
2023-03-12T22:18:01.206Z,0.56
2023-03-12T22:20:01.392Z,0.57
2023-03-12T22:21:01.469Z,0.55
2023-03-12T22:22:01.500Z,0.56
2023-03-12T22:23:01.558Z,0.56
2023-03-12T22:24:01.619Z,0.56
2023-03-12T22:25:01.705Z,0.56
2023-03-12T22:26:01.759Z,0.56
2023-03-12T22:28:02.760Z,0.56
2023-03-12T22:29:01.994Z,0.56
2023-03-12T22:30:02.059Z,0.55
2023-03-12T23:24:06.265Z,0.55
2023-03-12T23:25:06.295Z,0.56
2023-03-12T23:26:06.356Z,0.55
2023-03-12T23:27:06.427Z,0.55
2023-03-12T23:28:06.622Z,0.55
2023-03-12T23:29:06.580Z,0.55
2023-03-12T23:30:06.638Z,0.56
2023-03-12T23:31:06.726Z,0.56
2023-03-12T23:32:06.789Z,0.56
2023-03-12T23:33:06.931Z,0.55
2023-03-12T23:34:06.894Z,0.55
